Maersk Trieste — 9V5156 — position and weather

sailwx.info

Track history (hours):
 
Tides and Currents Weather Stations Pressure Air Temp Water Temp Dewpoint Dewpoint Depression Visibility Wind Speed Wind Dir Waves Ship Positions

Maersk Trieste

Last reported at 2018-Feb-14 00:21 UTC. Time now 2018-Feb-18 21:54 UTC.
Position N 05°12' E 000°56'.

Length 183 m; draft 7.2 m.

Type: Ship. MMSI: 563008400.

Date/timePositionNaut miles runAvg speedWind from/ knotsBaromVisibWave heightAir tempDewpointWater temp
2018-Feb-14 00:21N 05°12' E 000°56'3813.1
2018-Feb-13 21:29N 04°58' E 000°21'1313.0
2018-Feb-13 20:28N 04°53' E 000°09'812.8
2018-Feb-13 19:52N 04°51' E 000°02'513.0
2018-Feb-13 19:30N 04°49' W 000°03'713.0
2018-Feb-13 19:00N 04°47' W 000°09'613.2
2018-Feb-13 18:30N 04°44' W 000°15'713.1
2018-Feb-13 17:56N 04°42' W 000°22'  
2018-Feb-10 19:48N 08°02' W 014°23'412.7
2018-Feb-10 19:28N 08°05' W 014°26'812.6
2018-Feb-10 18:52N 08°10' W 014°32'512.7
2018-Feb-10 18:26N 08°13' W 014°36'512.7
2018-Feb-10 18:00N 08°17' W 014°40'612.6
2018-Feb-10 17:30N 08°21' W 014°45'612.6
2018-Feb-10 17:01N 08°26' W 014°49'612.8
2018-Feb-10 16:30N 08°30' W 014°54'612.8
2018-Feb-10 16:01N 08°34' W 014°59'712.9
2018-Feb-10 15:28N 08°39' W 015°04'612.4
2018-Feb-10 15:00N 08°42' W 015°09'612.9
2018-Feb-10 14:31N 08°47' W 015°13'713.3
2018-Feb-10 14:01N 08°51' W 015°18'713.3
2018-Feb-10 13:30N 08°56' W 015°23'713.5
2018-Feb-10 13:00N 09°00' W 015°28'713.4
2018-Feb-10 12:30N 09°05' W 015°33'713.2
2018-Feb-10 12:00N 09°09' W 015°39'3913.4
2018-Feb-10 09:03N 09°36' W 016°08'6212.8
2018-Feb-10 04:14N 10°18' W 016°54'312.2
2018-Feb-10 04:00N 10°20' W 016°56'  
2018-Feb-06 14:08N 27°45' W 015°12'213.5
2018-Feb-06 14:00N 27°47' W 015°11'713.4
2018-Feb-06 13:30N 27°53' W 015°08'713.0
2018-Feb-06 13:00N 27°59' W 015°05'613.0
2018-Feb-06 12:30N 28°05' W 015°02'713.0
2018-Feb-06 12:00N 28°11' W 014°59'713.3
2018-Feb-06 11:30N 28°17' W 014°56'713.2
2018-Feb-06 11:00N 28°23' W 014°54'713.2
2018-Feb-06 10:30N 28°30' W 014°53'713.2
2018-Feb-06 10:00N 28°36' W 014°52'813.3
2018-Feb-06 09:26N 28°44' W 014°51'  
Track history (hours):
 
Tides and Currents Weather Stations Pressure Air Temp Water Temp Dewpoint Dewpoint Depression Visibility Wind Speed Wind Dir Waves Ship Positions

Maersk Trieste

Last reported at 2018-Feb-14 00:21 UTC. Time now 2018-Feb-18 21:54 UTC.
Position N 05°12' E 000°56'.

Length 183 m; draft 7.2 m.

Type: Ship. MMSI: 563008400.

Date/timePositionNaut miles runAvg speedWind from/ knotsBaromVisibWave heightAir tempDewpointWater temp
2018-Feb-14 00:21N 05°12' E 000°56'3813.1
2018-Feb-13 21:29N 04°58' E 000°21'1313.0
2018-Feb-13 20:28N 04°53' E 000°09'812.8
2018-Feb-13 19:52N 04°51' E 000°02'513.0
2018-Feb-13 19:30N 04°49' W 000°03'713.0
2018-Feb-13 19:00N 04°47' W 000°09'613.2
2018-Feb-13 18:30N 04°44' W 000°15'713.1
2018-Feb-13 17:56N 04°42' W 000°22'  
2018-Feb-10 19:48N 08°02' W 014°23'412.7
2018-Feb-10 19:28N 08°05' W 014°26'812.6
2018-Feb-10 18:52N 08°10' W 014°32'512.7
2018-Feb-10 18:26N 08°13' W 014°36'512.7
2018-Feb-10 18:00N 08°17' W 014°40'612.6
2018-Feb-10 17:30N 08°21' W 014°45'612.6
2018-Feb-10 17:01N 08°26' W 014°49'612.8
2018-Feb-10 16:30N 08°30' W 014°54'612.8
2018-Feb-10 16:01N 08°34' W 014°59'712.9
2018-Feb-10 15:28N 08°39' W 015°04'612.4
2018-Feb-10 15:00N 08°42' W 015°09'612.9
2018-Feb-10 14:31N 08°47' W 015°13'713.3
2018-Feb-10 14:01N 08°51' W 015°18'713.3
2018-Feb-10 13:30N 08°56' W 015°23'713.5
2018-Feb-10 13:00N 09°00' W 015°28'713.4
2018-Feb-10 12:30N 09°05' W 015°33'713.2
2018-Feb-10 12:00N 09°09' W 015°39'3913.4
2018-Feb-10 09:03N 09°36' W 016°08'6212.8
2018-Feb-10 04:14N 10°18' W 016°54'312.2
2018-Feb-10 04:00N 10°20' W 016°56'  
2018-Feb-06 14:08N 27°45' W 015°12'213.5
2018-Feb-06 14:00N 27°47' W 015°11'713.4
2018-Feb-06 13:30N 27°53' W 015°08'713.0
2018-Feb-06 13:00N 27°59' W 015°05'613.0
2018-Feb-06 12:30N 28°05' W 015°02'713.0
2018-Feb-06 12:00N 28°11' W 014°59'713.3
2018-Feb-06 11:30N 28°17' W 014°56'713.2
2018-Feb-06 11:00N 28°23' W 014°54'713.2
2018-Feb-06 10:30N 28°30' W 014°53'713.2
2018-Feb-06 10:00N 28°36' W 014°52'813.3
2018-Feb-06 09:26N 28°44' W 014°51'  

Dump ship's entire track history